Time;durP1;ratioP1;P1;durP2;ratioP2;P2;SDS_P1;SDS_P2;PMS_P1;PMS_P2;Temp;Humidity;BMP_temperature;BMP_pressure;BME280_temperature;BME280_humidity;BME280_pressure;Samples;Min_cycle;Max_cycle;Signal;HPM_P1;HPM_P2
2022/09/04 00:00:47;;;;;;;;;;;18.90;99.90;;;;;;4928044;29;20208;-62
2022/09/04 00:03:20;;;;;;;;;;;18.90;99.90;;;;;;4929009;29;20733;-61
2022/09/04 00:05:50;;;;;;;;;;;18.80;99.90;;;;;;4927657;29;20627;-62
2022/09/04 00:08:27;;;;;;;;;;;18.90;99.90;;;;;;4930003;29;20207;-62
2022/09/04 00:10:59;;;;;;;;;;;18.90;99.90;;;;;;4927158;29;20209;-62
2022/09/04 00:13:28;;;;;;;;;;;18.90;99.90;;;;;;4928810;29;20252;-62
2022/09/04 00:15:59;;;;;;;;;;;18.90;99.90;;;;;;4932010;29;20557;-62
2022/09/04 00:18:30;;;;;;;;;;;18.90;99.90;;;;;;4928635;28;20678;-62
2022/09/04 00:21:02;;;;;;;;;;;18.80;99.90;;;;;;4935478;29;20212;-62
2022/09/04 00:23:33;;;;;;;;;;;18.90;99.90;;;;;;4929215;29;20688;-62
2022/09/04 00:26:04;;;;;;;;;;;18.80;99.90;;;;;;4932676;29;20212;-62
2022/09/04 00:28:33;;;;;;;;;;;18.80;99.90;;;;;;4930027;29;20264;-62
2022/09/04 00:31:05;;;;;;;;;;;18.80;99.90;;;;;;4925723;29;20205;-62
2022/09/04 00:33:37;;;;;;;;;;;18.90;99.90;;;;;;4928997;29;20278;-62
2022/09/04 00:36:05;;;;;;;;;;;18.90;99.90;;;;;;4928539;29;20288;-62
2022/09/04 00:38:37;;;;;;;;;;;18.90;99.90;;;;;;4928272;29;20205;-62
2022/09/04 00:41:11;;;;;;;;;;;19.00;99.90;;;;;;4928611;29;20758;-61
2022/09/04 00:43:54;;;;;;;;;;;19.00;99.90;;;;;;4929092;29;20741;-62
2022/09/04 00:46:32;;;;;;;;;;;19.00;99.90;;;;;;4929205;29;20212;-63
2022/09/04 00:49:21;;;;;;;;;;;18.90;99.90;;;;;;4927693;29;20253;-62
2022/09/04 00:51:53;;;;;;;;;;;18.80;99.90;;;;;;4924344;29;20224;-62
2022/09/04 00:54:33;;;;;;;;;;;19.00;99.90;;;;;;4924867;29;20201;-62
2022/09/04 00:57:19;;;;;;;;;;;19.10;99.90;;;;;;4927401;29;20280;-62
2022/09/04 01:00:01;;;;;;;;;;;19.00;99.90;;;;;;4936955;29;20200;-63
2022/09/04 01:02:36;;;;;;;;;;;19.00;99.90;;;;;;4932998;29;20286;-62
2022/09/04 01:05:08;;;;;;;;;;;19.00;99.90;;;;;;4932398;29;20756;-62
2022/09/04 01:07:49;;;;;;;;;;;18.90;99.90;;;;;;4936780;29;20677;-62
2022/09/04 01:10:27;;;;;;;;;;;18.80;99.90;;;;;;4930530;29;20689;-62
2022/09/04 01:12:59;;;;;;;;;;;18.80;99.90;;;;;;4928305;29;20208;-62
2022/09/04 01:15:34;;;;;;;;;;;18.90;99.90;;;;;;4933213;29;20264;-62
2022/09/04 01:18:04;;;;;;;;;;;18.90;99.90;;;;;;4933311;29;20217;-62
2022/09/04 01:20:39;;;;;;;;;;;18.90;99.90;;;;;;4928502;29;21660;-62
2022/09/04 01:23:16;;;;;;;;;;;18.80;99.90;;;;;;4925226;29;20592;-62
2022/09/04 01:25:58;;;;;;;;;;;18.70;99.90;;;;;;4927862;29;20201;-62
2022/09/04 01:28:29;;;;;;;;;;;18.80;99.90;;;;;;4927872;29;20107;-62
2022/09/04 01:31:00;;;;;;;;;;;19.00;99.90;;;;;;4927333;29;20276;-62
2022/09/04 01:33:31;;;;;;;;;;;19.10;99.90;;;;;;4933807;29;20211;-62
2022/09/04 01:36:03;;;;;;;;;;;19.10;99.90;;;;;;4926935;29;20196;-62
2022/09/04 01:38:33;;;;;;;;;;;19.30;99.90;;;;;;4927105;28;20219;-62
2022/09/04 01:41:06;;;;;;;;;;;19.40;99.90;;;;;;4929760;29;20207;-62
2022/09/04 01:43:33;;;;;;;;;;;19.20;99.90;;;;;;4933476;29;20214;-62
2022/09/04 01:46:24;;;;;;;;;;;19.10;99.90;;;;;;4928563;29;20127;-62
2022/09/04 01:48:54;;;;;;;;;;;19.10;99.90;;;;;;4928393;29;25080;-62
2022/09/04 01:51:25;;;;;;;;;;;19.00;99.90;;;;;;4929817;29;20609;-62
2022/09/04 01:54:01;;;;;;;;;;;19.00;99.90;;;;;;4927268;29;20205;-62
2022/09/04 01:56:34;;;;;;;;;;;19.00;99.90;;;;;;4931301;29;20219;-61
2022/09/04 01:59:06;;;;;;;;;;;19.00;99.90;;;;;;4933933;29;20198;-61
2022/09/04 02:01:39;;;;;;;;;;;19.00;99.90;;;;;;4926955;29;20094;-62
2022/09/04 02:04:11;;;;;;;;;;;18.90;99.90;;;;;;4927123;29;20281;-62
2022/09/04 02:06:44;;;;;;;;;;;19.00;99.90;;;;;;4926512;29;20220;-62
2022/09/04 02:09:19;;;;;;;;;;;18.80;99.90;;;;;;4928018;29;20229;-62
2022/09/04 02:11:52;;;;;;;;;;;18.80;99.90;;;;;;4926056;29;20197;-61
2022/09/04 02:14:28;;;;;;;;;;;18.70;99.90;;;;;;4929630;29;20243;-61
2022/09/04 02:17:02;;;;;;;;;;;18.70;99.90;;;;;;4927389;29;20696;-62
2022/09/04 02:19:36;;;;;;;;;;;18.80;99.90;;;;;;4926775;29;20193;-62
2022/09/04 02:22:14;;;;;;;;;;;18.90;99.90;;;;;;4929195;29;20204;-62
2022/09/04 02:24:46;;;;;;;;;;;19.00;99.90;;;;;;4925869;29;20247;-62
2022/09/04 02:27:18;;;;;;;;;;;19.00;99.90;;;;;;4928187;29;20208;-62
2022/09/04 02:29:48;;;;;;;;;;;19.10;99.90;;;;;;4927079;29;20202;-63
2022/09/04 02:32:18;;;;;;;;;;;19.10;99.90;;;;;;4928320;29;20197;-62
2022/09/04 02:34:49;;;;;;;;;;;19.00;99.90;;;;;;4928492;29;20688;-62
2022/09/04 02:37:22;;;;;;;;;;;19.00;99.90;;;;;;4932818;29;20584;-62
2022/09/04 02:39:55;;;;;;;;;;;19.10;99.90;;;;;;4929207;29;20197;-62
2022/09/04 02:42:31;;;;;;;;;;;19.10;99.90;;;;;;4937356;29;22888;-62
2022/09/04 02:45:04;;;;;;;;;;;19.00;99.90;;;;;;4937560;29;20220;-62
2022/09/04 02:47:36;;;;;;;;;;;19.00;99.90;;;;;;4938627;29;20724;-62
2022/09/04 02:50:09;;;;;;;;;;;18.90;99.90;;;;;;4931026;29;20200;-62
2022/09/04 02:52:47;;;;;;;;;;;19.00;99.90;;;;;;4938431;29;20259;-62
2022/09/04 02:55:23;;;;;;;;;;;19.00;99.90;;;;;;4929012;29;20625;-63
2022/09/04 02:57:57;;;;;;;;;;;19.00;99.90;;;;;;4931900;29;20201;-63
2022/09/04 03:00:31;;;;;;;;;;;19.00;99.90;;;;;;4929085;29;20201;-63
2022/09/04 03:03:01;;;;;;;;;;;19.20;99.90;;;;;;4929146;29;20207;-62
2022/09/04 03:05:31;;;;;;;;;;;19.20;99.90;;;;;;4927526;29;20663;-62
2022/09/04 03:08:02;;;;;;;;;;;19.20;99.90;;;;;;4937278;29;20200;-62
2022/09/04 03:10:31;;;;;;;;;;;19.30;99.90;;;;;;4936786;29;20216;-62
2022/09/04 03:13:04;;;;;;;;;;;19.30;99.90;;;;;;4927460;29;20212;-62
2022/09/04 03:15:35;;;;;;;;;;;19.30;99.90;;;;;;4933203;29;20212;-62
2022/09/04 03:18:05;;;;;;;;;;;19.30;99.90;;;;;;4930541;29;20208;-62
2022/09/04 03:20:36;;;;;;;;;;;19.40;99.90;;;;;;4936425;29;20260;-62
2022/09/04 03:23:09;;;;;;;;;;;19.40;99.90;;;;;;4932521;29;20205;-62
2022/09/04 03:25:49;;;;;;;;;;;19.30;99.90;;;;;;4929078;29;20212;-62
2022/09/04 03:28:22;;;;;;;;;;;19.20;99.90;;;;;;4929390;29;20201;-63
2022/09/04 03:30:51;;;;;;;;;;;19.10;99.90;;;;;;4931090;29;21252;-62
2022/09/04 03:33:21;;;;;;;;;;;19.20;99.90;;;;;;4938847;29;20104;-63
2022/09/04 03:35:52;;;;;;;;;;;19.30;99.90;;;;;;4933287;29;20256;-62
2022/09/04 03:38:27;;;;;;;;;;;19.20;99.90;;;;;;4938529;29;20215;-63
2022/09/04 03:40:59;;;;;;;;;;;19.30;99.90;;;;;;4931877;29;20200;-63
2022/09/04 03:43:41;;;;;;;;;;;19.40;99.90;;;;;;4937764;29;20908;-63
2022/09/04 03:46:16;;;;;;;;;;;19.40;99.90;;;;;;4925017;29;20217;-63
2022/09/04 03:48:51;;;;;;;;;;;19.40;99.90;;;;;;4930526;29;20213;-63
2022/09/04 03:51:26;;;;;;;;;;;19.30;99.90;;;;;;4927793;29;20212;-63
2022/09/04 03:53:59;;;;;;;;;;;19.30;99.90;;;;;;4929806;29;20369;-63
2022/09/04 03:56:45;;;;;;;;;;;19.10;99.90;;;;;;4928384;29;20847;-62
2022/09/04 03:59:16;;;;;;;;;;;19.20;99.90;;;;;;4908116;29;20637;-63
2022/09/04 04:01:50;;;;;;;;;;;19.10;99.90;;;;;;4927758;29;20463;-62
2022/09/04 04:04:33;;;;;;;;;;;19.10;99.90;;;;;;4951673;22;20065;-62
2022/09/04 04:07:07;;;;;;;;;;;19.10;99.90;;;;;;4984842;28;20217;-62
2022/09/04 04:09:44;;;;;;;;;;;19.20;99.90;;;;;;4988594;28;20627;-62
2022/09/04 04:12:19;;;;;;;;;;;19.20;99.90;;;;;;4986545;28;20616;-62
2022/09/04 04:14:55;;;;;;;;;;;19.20;99.90;;;;;;4986995;28;20196;-62
2022/09/04 04:17:33;;;;;;;;;;;19.30;99.90;;;;;;4988270;28;20212;-62
2022/09/04 04:20:07;;;;;;;;;;;19.30;99.90;;;;;;4987388;28;20215;-62
2022/09/04 04:22:48;;;;;;;;;;;19.60;99.90;;;;;;4990302;28;20203;-62
2022/09/04 04:25:24;;;;;;;;;;;19.60;99.90;;;;;;4983139;28;20195;-63
2022/09/04 04:27:59;;;;;;;;;;;19.60;99.90;;;;;;4987749;28;20196;-62
2022/09/04 04:30:30;;;;;;;;;;;19.60;99.90;;;;;;4981141;28;20198;-62
2022/09/04 04:33:10;;;;;;;;;;;19.50;99.90;;;;;;4986229;28;20527;-62
2022/09/04 04:35:42;;;;;;;;;;;19.40;99.90;;;;;;4987457;28;20209;-62
2022/09/04 04:38:17;;;;;;;;;;;19.40;99.90;;;;;;4985701;28;20191;-62
2022/09/04 04:40:58;;;;;;;;;;;19.30;99.90;;;;;;4985132;28;20215;-61
2022/09/04 04:43:31;;;;;;;;;;;19.30;99.90;;;;;;4984419;28;20206;-62
2022/09/04 04:46:02;;;;;;;;;;;19.30;99.90;;;;;;4990540;28;20215;-60
2022/09/04 04:48:44;;;;;;;;;;;19.40;99.90;;;;;;4984439;28;20727;-60
2022/09/04 04:51:19;;;;;;;;;;;19.60;99.90;;;;;;4990232;28;20207;-60
2022/09/04 04:53:51;;;;;;;;;;;19.50;99.90;;;;;;4986066;28;20660;-59
2022/09/04 04:56:23;;;;;;;;;;;19.50;99.90;;;;;;4985032;28;20203;-60
2022/09/04 04:58:55;;;;;;;;;;;19.60;99.90;;;;;;4982318;28;20620;-59
2022/09/04 05:01:27;;;;;;;;;;;19.70;99.90;;;;;;4984231;28;20640;-59
2022/09/04 05:04:05;;;;;;;;;;;19.80;99.90;;;;;;4983888;28;20205;-60
2022/09/04 05:06:36;;;;;;;;;;;19.70;99.90;;;;;;4984900;28;20727;-60
2022/09/04 05:09:09;;;;;;;;;;;19.60;99.90;;;;;;4980462;28;20231;-60
2022/09/04 05:11:43;;;;;;;;;;;19.60;99.90;;;;;;4985754;28;20633;-60
2022/09/04 05:14:18;;;;;;;;;;;19.60;99.90;;;;;;4985041;28;20203;-59
2022/09/04 05:16:51;;;;;;;;;;;19.60;99.90;;;;;;4984577;28;20674;-60
2022/09/04 05:19:30;;;;;;;;;;;19.70;99.90;;;;;;4988796;28;20199;-60
2022/09/04 05:22:02;;;;;;;;;;;19.80;99.90;;;;;;4986462;28;20203;-60
2022/09/04 05:24:32;;;;;;;;;;;19.70;99.90;;;;;;4982763;28;20567;-61
2022/09/04 05:27:02;;;;;;;;;;;19.80;99.90;;;;;;4985178;28;20261;-61
2022/09/04 05:29:34;;;;;;;;;;;19.90;99.90;;;;;;4984615;28;20211;-60
2022/09/04 05:32:07;;;;;;;;;;;19.70;99.90;;;;;;4986018;28;20199;-61
2022/09/04 05:34:52;;;;;;;;;;;19.70;99.90;;;;;;4988716;28;20223;-62
2022/09/04 05:37:22;;;;;;;;;;;19.80;99.90;;;;;;4981109;28;20251;-61
2022/09/04 05:39:57;;;;;;;;;;;19.60;99.90;;;;;;4983608;28;20656;-62
2022/09/04 05:42:41;;;;;;;;;;;19.60;99.90;;;;;;4978310;28;20227;-59
2022/09/04 05:45:11;;;;;;;;;;;19.50;99.90;;;;;;4976449;28;20910;-60
2022/09/04 05:47:43;;;;;;;;;;;19.50;99.90;;;;;;4982262;28;20073;-61
2022/09/04 05:50:36;;;;;;;;;;;19.40;99.90;;;;;;4977892;28;20262;-60
2022/09/04 05:53:18;;;;;;;;;;;19.50;99.90;;;;;;4976753;28;20736;-60
2022/09/04 05:55:58;;;;;;;;;;;19.60;99.90;;;;;;4973007;28;20225;-64
2022/09/04 05:58:33;;;;;;;;;;;19.60;99.90;;;;;;4976615;28;20203;-61
2022/09/04 06:01:07;;;;;;;;;;;19.60;99.90;;;;;;4975950;28;20269;-61
2022/09/04 06:03:45;;;;;;;;;;;19.70;99.90;;;;;;4976744;28;20207;-61
2022/09/04 06:06:21;;;;;;;;;;;19.90;99.90;;;;;;4976341;28;20762;-62
2022/09/04 06:09:08;;;;;;;;;;;19.80;99.90;;;;;;4974594;28;20237;-60
2022/09/04 06:11:50;;;;;;;;;;;19.90;99.90;;;;;;4975799;28;20664;-60
2022/09/04 06:14:34;;;;;;;;;;;20.00;99.90;;;;;;4975083;28;20203;-62
2022/09/04 06:17:11;;;;;;;;;;;19.90;99.90;;;;;;4979278;28;20207;-61
2022/09/04 06:19:48;;;;;;;;;;;19.90;99.90;;;;;;4975592;28;20926;-60
2022/09/04 06:22:29;;;;;;;;;;;19.90;99.90;;;;;;4976140;28;20238;-60
2022/09/04 06:25:13;;;;;;;;;;;20.00;99.90;;;;;;4976497;28;20706;-63
2022/09/04 06:27:53;;;;;;;;;;;20.10;99.90;;;;;;4976662;28;20231;-61
2022/09/04 06:30:21;;;;;;;;;;;20.00;99.90;;;;;;4973855;28;20206;-64
2022/09/04 06:33:00;;;;;;;;;;;20.00;99.90;;;;;;4977056;28;20687;-63
2022/09/04 06:35:46;;;;;;;;;;;20.00;99.90;;;;;;4977030;28;20204;-61
2022/09/04 06:38:23;;;;;;;;;;;20.00;99.90;;;;;;4978386;28;20203;-61
2022/09/04 06:41:01;;;;;;;;;;;20.20;99.90;;;;;;4975715;28;20200;-60
2022/09/04 06:43:32;;;;;;;;;;;20.10;99.90;;;;;;4976061;28;20201;-64
2022/09/04 06:46:09;;;;;;;;;;;20.10;99.90;;;;;;4978184;28;20291;-61
2022/09/04 06:48:44;;;;;;;;;;;20.00;99.90;;;;;;4976733;28;20207;-61
2022/09/04 06:51:19;;;;;;;;;;;19.80;99.90;;;;;;4975388;28;20212;-60
2022/09/04 06:53:53;;;;;;;;;;;19.50;99.90;;;;;;4973940;28;20262;-64
2022/09/04 06:56:31;;;;;;;;;;;19.50;99.90;;;;;;4977923;28;20225;-64
2022/09/04 06:59:16;;;;;;;;;;;19.40;99.90;;;;;;4974520;28;20200;-61
2022/09/04 07:01:49;;;;;;;;;;;19.10;99.90;;;;;;4978079;28;20207;-62
2022/09/04 07:04:21;;;;;;;;;;;19.00;99.90;;;;;;4979051;28;20232;-64
2022/09/04 07:06:54;;;;;;;;;;;19.00;99.90;;;;;;4973962;28;20262;-64
2022/09/04 07:09:28;;;;;;;;;;;19.00;99.90;;;;;;4975871;28;20203;-63
2022/09/04 07:12:05;;;;;;;;;;;19.10;99.90;;;;;;4976130;28;20219;-62
2022/09/04 07:14:53;;;;;;;;;;;19.00;99.90;;;;;;4978609;28;20204;-61
2022/09/04 07:17:24;;;;;;;;;;;19.10;99.90;;;;;;4977004;28;20266;-64
2022/09/04 07:20:06;;;;;;;;;;;19.00;99.90;;;;;;4976265;28;20199;-63
2022/09/04 07:22:46;;;;;;;;;;;19.10;99.90;;;;;;4973420;28;20684;-65
2022/09/04 07:25:16;;;;;;;;;;;19.10;99.90;;;;;;4974595;28;20212;-61
2022/09/04 07:27:54;;;;;;;;;;;19.20;99.90;;;;;;4976260;28;20203;-61
2022/09/04 07:30:24;;;;;;;;;;;19.20;99.90;;;;;;4976120;28;20203;-66
2022/09/04 07:32:55;;;;;;;;;;;19.30;99.90;;;;;;4978967;28;20204;-65
2022/09/04 07:35:26;;;;;;;;;;;19.20;99.90;;;;;;4977965;28;20208;-61
2022/09/04 07:37:57;;;;;;;;;;;19.20;99.90;;;;;;4980612;28;20216;-65
2022/09/04 07:40:30;;;;;;;;;;;19.10;99.90;;;;;;4982698;28;20192;-65
2022/09/04 07:43:00;;;;;;;;;;;19.10;99.90;;;;;;4983289;28;20199;-62
2022/09/04 07:45:31;;;;;;;;;;;19.10;99.90;;;;;;4983084;28;20265;-61
2022/09/04 07:48:05;;;;;;;;;;;18.90;99.90;;;;;;4978197;28;20298;-68
2022/09/04 07:50:36;;;;;;;;;;;18.80;99.90;;;;;;4982048;28;20196;-61
2022/09/04 07:53:14;;;;;;;;;;;19.00;99.90;;;;;;4977587;28;20196;-63
2022/09/04 07:55:45;;;;;;;;;;;19.10;99.90;;;;;;4977190;28;20210;-60
2022/09/04 07:58:43;;;;;;;;;;;19.00;99.90;;;;;;4978689;28;20282;-63
2022/09/04 08:01:25;;;;;;;;;;;19.00;99.90;;;;;;4978472;28;20208;-63
2022/09/04 08:04:02;;;;;;;;;;;19.00;99.90;;;;;;4979972;28;20206;-63
2022/09/04 08:06:34;;;;;;;;;;;19.10;99.90;;;;;;4978448;28;20235;-67
2022/09/04 08:09:21;;;;;;;;;;;19.30;99.90;;;;;;4980427;28;20246;-64
2022/09/04 08:11:59;;;;;;;;;;;19.30;99.90;;;;;;4977860;28;20266;-64
2022/09/04 08:14:32;;;;;;;;;;;19.30;99.90;;;;;;4979084;28;20285;-63
2022/09/04 08:17:05;;;;;;;;;;;19.30;99.90;;;;;;4979548;28;20657;-63
2022/09/04 08:19:39;;;;;;;;;;;19.30;99.90;;;;;;4979984;28;20204;-66
2022/09/04 08:22:10;;;;;;;;;;;19.30;99.90;;;;;;4975864;28;20946;-64
2022/09/04 08:24:51;;;;;;;;;;;19.30;99.90;;;;;;4975627;28;20296;-61
2022/09/04 08:27:26;;;;;;;;;;;19.40;99.90;;;;;;4974476;28;20224;-66
2022/09/04 08:30:02;;;;;;;;;;;19.50;99.90;;;;;;4981199;28;20200;-66
2022/09/04 08:32:38;;;;;;;;;;;19.70;99.90;;;;;;4975204;28;20200;-63
2022/09/04 08:35:09;;;;;;;;;;;19.80;99.90;;;;;;4977657;28;20212;-65
2022/09/04 08:37:42;;;;;;;;;;;19.80;99.90;;;;;;4976139;28;20203;-63
2022/09/04 08:40:25;;;;;;;;;;;19.80;99.90;;;;;;4976541;28;20236;-68
2022/09/04 08:43:05;;;;;;;;;;;19.90;99.90;;;;;;4975432;28;20215;-61
2022/09/04 08:45:46;;;;;;;;;;;19.90;99.90;;;;;;4981757;28;20207;-61
2022/09/04 08:48:32;;;;;;;;;;;20.10;99.90;;;;;;4978381;28;20207;-63
2022/09/04 08:51:20;;;;;;;;;;;20.30;99.90;;;;;;4974681;28;20286;-62
2022/09/04 08:54:01;;;;;;;;;;;20.40;99.90;;;;;;4975834;28;20214;-63
2022/09/04 08:56:35;;;;;;;;;;;20.50;99.90;;;;;;4980700;28;20254;-66
2022/09/04 08:59:29;;;;;;;;;;;20.50;99.90;;;;;;4977256;28;20199;-61
2022/09/04 09:02:17;;;;;;;;;;;20.60;99.90;;;;;;4976684;28;20250;-66
2022/09/04 09:05:06;;;;;;;;;;;20.60;99.90;;;;;;4977770;28;20230;-61
2022/09/04 09:07:51;;;;;;;;;;;20.80;99.90;;;;;;4976717;28;20242;-68
2022/09/04 09:10:31;;;;;;;;;;;20.70;99.90;;;;;;4979814;28;20251;-67
2022/09/04 09:13:25;;;;;;;;;;;20.60;99.90;;;;;;4977187;28;20629;-63
2022/09/04 09:16:03;;;;;;;;;;;20.50;99.90;;;;;;4977608;28;20207;-61
2022/09/04 09:18:36;;;;;;;;;;;20.70;99.90;;;;;;4977117;28;20242;-62
2022/09/04 09:21:12;;;;;;;;;;;20.70;99.90;;;;;;4976804;28;20282;-62
2022/09/04 09:23:59;;;;;;;;;;;20.60;99.90;;;;;;4976610;28;20215;-61
2022/09/04 09:26:28;;;;;;;;;;;20.70;99.90;;;;;;4977244;28;20226;-61
2022/09/04 09:29:11;;;;;;;;;;;20.80;99.90;;;;;;4977143;28;20288;-62
2022/09/04 09:32:07;;;;;;;;;;;21.00;99.90;;;;;;4976219;28;20216;-61
2022/09/04 09:35:03;;;;;;;;;;;21.00;99.90;;;;;;4977627;28;20616;-62
2022/09/04 09:37:46;;;;;;;;;;;21.10;99.90;;;;;;4976392;28;20200;-61
2022/09/04 09:40:31;;;;;;;;;;;21.20;99.90;;;;;;4977006;28;20707;-61
2022/09/04 09:43:14;;;;;;;;;;;21.30;99.90;;;;;;4978536;28;20199;-61
2022/09/04 09:46:00;;;;;;;;;;;21.30;99.90;;;;;;4978580;28;20207;-61
2022/09/04 09:48:36;;;;;;;;;;;21.40;99.90;;;;;;4976041;28;20202;-62
2022/09/04 09:51:35;;;;;;;;;;;21.40;99.90;;;;;;4976405;28;20206;-62
2022/09/04 09:54:22;;;;;;;;;;;21.60;99.90;;;;;;4976135;28;20208;-61
2022/09/04 09:57:09;;;;;;;;;;;21.80;99.90;;;;;;4976218;28;20206;-62
2022/09/04 09:59:55;;;;;;;;;;;21.80;99.90;;;;;;4976444;28;20261;-61
2022/09/04 10:02:39;;;;;;;;;;;21.80;99.90;;;;;;4981185;28;21001;-61
2022/09/04 10:05:31;;;;;;;;;;;21.90;99.90;;;;;;4976997;28;20207;-62
2022/09/04 10:08:10;;;;;;;;;;;22.20;99.90;;;;;;4975761;28;20722;-62
2022/09/04 10:10:50;;;;;;;;;;;22.40;99.90;;;;;;4976316;28;20308;-62
2022/09/04 10:13:35;;;;;;;;;;;22.50;99.90;;;;;;4976307;28;20759;-62
2022/09/04 10:16:10;;;;;;;;;;;22.60;99.90;;;;;;4976637;28;20265;-63
2022/09/04 10:18:55;;;;;;;;;;;22.60;99.90;;;;;;4974882;28;20269;-62
2022/09/04 10:21:53;;;;;;;;;;;22.10;99.90;;;;;;4971650;28;20333;-61
2022/09/04 10:24:46;;;;;;;;;;;21.70;99.90;;;;;;4976679;28;20207;-62
2022/09/04 10:27:19;;;;;;;;;;;21.90;99.90;;;;;;4975534;28;20199;-62
2022/09/04 10:29:53;;;;;;;;;;;22.00;99.90;;;;;;4975750;28;20264;-62
2022/09/04 10:32:33;;;;;;;;;;;22.00;99.90;;;;;;4976982;28;20220;-62
2022/09/04 10:35:16;;;;;;;;;;;22.10;99.90;;;;;;4976744;28;20747;-62
2022/09/04 10:37:52;;;;;;;;;;;22.50;99.90;;;;;;4975392;28;20226;-62
2022/09/04 10:40:34;;;;;;;;;;;23.10;99.90;;;;;;4975707;28;20274;-63
2022/09/04 10:43:15;;;;;;;;;;;23.70;99.90;;;;;;4976641;28;20202;-63
2022/09/04 10:45:45;;;;;;;;;;;23.90;99.90;;;;;;4981029;28;20207;-63
2022/09/04 10:48:35;;;;;;;;;;;24.30;99.90;;;;;;4975790;28;20228;-63
2022/09/04 10:51:11;;;;;;;;;;;24.80;99.90;;;;;;4974056;28;20720;-63
2022/09/04 10:54:03;;;;;;;;;;;24.80;99.90;;;;;;4973984;28;20261;-63
2022/09/04 10:56:40;;;;;;;;;;;24.90;99.90;;;;;;4974791;28;20219;-63
2022/09/04 10:59:22;;;;;;;;;;;25.10;99.90;;;;;;4976875;28;20211;-63
2022/09/04 11:01:59;;;;;;;;;;;25.30;99.90;;;;;;4981747;28;20207;-63
2022/09/04 11:04:44;;;;;;;;;;;25.10;99.90;;;;;;4984365;28;20232;-63
2022/09/04 11:07:27;;;;;;;;;;;25.10;99.90;;;;;;4974719;28;20342;-62
2022/09/04 11:10:06;;;;;;;;;;;25.40;99.90;;;;;;4980708;28;20298;-65
2022/09/04 11:12:52;;;;;;;;;;;25.80;99.90;;;;;;4977702;28;20204;-66
2022/09/04 11:15:36;;;;;;;;;;;26.20;99.90;;;;;;4979261;28;21064;-67
2022/09/04 11:18:21;;;;;;;;;;;26.20;99.90;;;;;;4977542;28;20832;-65
2022/09/04 11:21:06;;;;;;;;;;;26.60;99.90;;;;;;4978071;28;20072;-68
2022/09/04 11:23:51;;;;;;;;;;;27.10;99.90;;;;;;4978248;28;20222;-67
2022/09/04 11:26:32;;;;;;;;;;;27.50;99.90;;;;;;4979504;28;20253;-68
2022/09/04 11:29:24;;;;;;;;;;;27.70;99.90;;;;;;4982718;28;20625;-65
2022/09/04 11:32:10;;;;;;;;;;;27.50;99.90;;;;;;4971172;28;20618;-63
2022/09/04 11:34:54;;;;;;;;;;;27.40;99.90;;;;;;4979190;28;20210;-66
2022/09/04 11:37:55;;;;;;;;;;;27.50;99.90;;;;;;4977955;28;20239;-69
2022/09/04 11:40:39;;;;;;;;;;;27.80;99.90;;;;;;4898781;29;20280;-66
2022/09/04 11:43:17;;;;;;;;;;;27.40;99.90;;;;;;4899111;29;20246;-64
2022/09/04 11:45:57;;;;;;;;;;;27.40;99.90;;;;;;4949470;28;20211;-69
2022/09/04 11:48:41;;;;;;;;;;;27.50;99.90;;;;;;4979112;28;20204;-63
2022/09/04 11:51:17;;;;;;;;;;;27.70;99.90;;;;;;4975827;28;21030;-63
2022/09/04 11:53:59;;;;;;;;;;;28.20;99.90;;;;;;4975481;28;20264;-62
2022/09/04 11:56:42;;;;;;;;;;;28.60;99.90;;;;;;4981645;28;20215;-67
2022/09/04 11:59:16;;;;;;;;;;;28.90;99.90;;;;;;4977782;28;20218;-64
2022/09/04 12:01:53;;;;;;;;;;;29.00;99.90;;;;;;4978366;28;20211;-62
2022/09/04 12:04:29;;;;;;;;;;;29.10;99.90;;;;;;4978627;28;20218;-66
2022/09/04 12:07:04;;;;;;;;;;;29.40;99.90;;;;;;4976201;28;20762;-64
2022/09/04 12:09:38;;;;;;;;;;;29.70;99.90;;;;;;4973713;28;20577;-66
2022/09/04 12:12:33;;;;;;;;;;;29.80;99.90;;;;;;4979612;28;20673;-69
2022/09/04 12:15:12;;;;;;;;;;;30.20;99.90;;;;;;4955977;28;20705;-63
2022/09/04 12:17:59;;;;;;;;;;;30.30;99.90;;;;;;4975764;28;20229;-63
2022/09/04 12:20:44;;;;;;;;;;;30.70;99.90;;;;;;4975892;28;20247;-67
2022/09/04 12:23:22;;;;;;;;;;;30.60;99.40;;;;;;4974645;28;20210;-66
2022/09/04 12:26:00;;;;;;;;;;;30.50;99.40;;;;;;4977027;28;20287;-66
2022/09/04 12:28:37;;;;;;;;;;;30.30;98.80;;;;;;4977138;28;20203;-68
2022/09/04 12:31:17;;;;;;;;;;;30.30;98.70;;;;;;4970709;28;20243;-68
2022/09/04 12:33:58;;;;;;;;;;;30.20;99.00;;;;;;4976154;28;20203;-67
2022/09/04 12:36:37;;;;;;;;;;;30.50;98.20;;;;;;4975109;28;20236;-68
2022/09/04 12:39:16;;;;;;;;;;;30.80;98.30;;;;;;4977400;28;20735;-66
2022/09/04 12:41:48;;;;;;;;;;;31.20;97.90;;;;;;4977702;28;20696;-64
2022/09/04 12:44:19;;;;;;;;;;;31.60;96.70;;;;;;4976673;28;20226;-63
2022/09/04 12:46:56;;;;;;;;;;;31.70;97.00;;;;;;4978330;28;20207;-69
2022/09/04 12:49:29;;;;;;;;;;;31.80;96.80;;;;;;4978680;28;20207;-63
2022/09/04 12:52:02;;;;;;;;;;;32.20;96.40;;;;;;4980921;28;20819;-67
2022/09/04 12:54:33;;;;;;;;;;;32.20;95.80;;;;;;4976396;28;20222;-66
2022/09/04 12:57:14;;;;;;;;;;;32.10;95.50;;;;;;4981192;28;20208;-70
2022/09/04 12:59:51;;;;;;;;;;;32.20;94.90;;;;;;4976922;28;20224;-62
2022/09/04 13:02:26;;;;;;;;;;;32.10;94.90;;;;;;4981180;28;20691;-64
2022/09/04 13:04:59;;;;;;;;;;;32.50;94.60;;;;;;4978127;28;20256;-69
2022/09/04 13:07:34;;;;;;;;;;;32.50;94.50;;;;;;4978119;28;20270;-71
2022/09/04 13:10:10;;;;;;;;;;;32.40;94.30;;;;;;4980422;28;20199;-67
2022/09/04 13:12:41;;;;;;;;;;;32.50;93.90;;;;;;4978490;28;20199;-71
2022/09/04 13:15:18;;;;;;;;;;;32.30;93.40;;;;;;4974753;28;20208;-66
2022/09/04 13:17:50;;;;;;;;;;;32.30;93.30;;;;;;4973543;28;20855;-63
2022/09/04 13:20:21;;;;;;;;;;;32.40;93.40;;;;;;4980256;28;20214;-68
2022/09/04 13:23:00;;;;;;;;;;;32.80;93.10;;;;;;4978073;28;20219;-64
2022/09/04 13:25:32;;;;;;;;;;;32.90;92.20;;;;;;4977177;28;20794;-64
2022/09/04 13:28:10;;;;;;;;;;;32.90;92.30;;;;;;4974011;28;20242;-64
2022/09/04 13:30:47;;;;;;;;;;;33.50;91.50;;;;;;4977668;28;20207;-64
2022/09/04 13:33:19;;;;;;;;;;;33.50;91.10;;;;;;4975664;28;20756;-66
2022/09/04 13:36:00;;;;;;;;;;;33.70;90.20;;;;;;4976249;28;20243;-64
2022/09/04 13:38:38;;;;;;;;;;;33.40;90.10;;;;;;4974510;28;21791;-64
2022/09/04 13:41:18;;;;;;;;;;;33.60;90.40;;;;;;4975542;28;20988;-64
2022/09/04 13:43:53;;;;;;;;;;;34.00;90.20;;;;;;4975416;28;20211;-65
2022/09/04 13:46:24;;;;;;;;;;;33.70;89.30;;;;;;4975990;28;20243;-65
2022/09/04 13:48:54;;;;;;;;;;;33.00;90.00;;;;;;4974703;28;20245;-68
2022/09/04 13:51:23;;;;;;;;;;;32.60;90.50;;;;;;4973649;28;20262;-63
2022/09/04 13:54:00;;;;;;;;;;;32.50;90.20;;;;;;4973311;28;20231;-63
2022/09/04 13:56:31;;;;;;;;;;;32.30;90.50;;;;;;4975181;28;20301;-66
2022/09/04 13:59:07;;;;;;;;;;;32.40;90.50;;;;;;4975626;28;20627;-66
2022/09/04 14:01:36;;;;;;;;;;;32.40;90.20;;;;;;4974051;28;20569;-70
2022/09/04 14:04:06;;;;;;;;;;;32.80;90.20;;;;;;4977549;28;20199;-68
2022/09/04 14:06:35;;;;;;;;;;;32.90;89.10;;;;;;4974322;28;20704;-66
2022/09/04 14:09:05;;;;;;;;;;;33.20;90.10;;;;;;4976066;28;20204;-64
2022/09/04 14:11:43;;;;;;;;;;;33.20;88.30;;;;;;4978040;28;20227;-67
2022/09/04 14:14:18;;;;;;;;;;;33.60;87.70;;;;;;4977874;28;20211;-63
2022/09/04 14:16:49;;;;;;;;;;;33.30;87.00;;;;;;4978588;28;20211;-64
2022/09/04 14:19:31;;;;;;;;;;;33.50;86.30;;;;;;4974632;28;21082;-65
2022/09/04 14:22:04;;;;;;;;;;;33.80;86.60;;;;;;4976514;28;20197;-64
2022/09/04 14:24:40;;;;;;;;;;;34.00;87.40;;;;;;4977738;28;20196;-64
2022/09/04 14:27:13;;;;;;;;;;;33.70;87.80;;;;;;4974073;28;20656;-63
2022/09/04 14:29:49;;;;;;;;;;;33.80;86.50;;;;;;4977924;28;20575;-63
2022/09/04 14:32:22;;;;;;;;;;;33.20;87.10;;;;;;4974476;28;20207;-67
2022/09/04 14:35:01;;;;;;;;;;;33.30;87.40;;;;;;4978463;28;20207;-65
2022/09/04 14:37:41;;;;;;;;;;;33.20;87.10;;;;;;4975000;28;20693;-63
2022/09/04 14:40:13;;;;;;;;;;;32.50;87.10;;;;;;4978431;28;20270;-68
2022/09/04 14:42:45;;;;;;;;;;;32.40;88.10;;;;;;4981510;28;20199;-64
2022/09/04 14:45:17;;;;;;;;;;;32.90;88.20;;;;;;4978843;28;20681;-62
2022/09/04 14:47:46;;;;;;;;;;;32.90;87.80;;;;;;4978964;28;21103;-65
2022/09/04 14:50:16;;;;;;;;;;;32.70;87.50;;;;;;4976773;28;20262;-64
2022/09/04 14:52:45;;;;;;;;;;;33.00;87.40;;;;;;4977605;28;20203;-66
2022/09/04 14:55:16;;;;;;;;;;;33.30;87.10;;;;;;4981591;28;20266;-63
2022/09/04 14:57:48;;;;;;;;;;;33.10;86.70;;;;;;4982112;28;20282;-62
2022/09/04 15:00:17;;;;;;;;;;;32.90;87.40;;;;;;4980663;28;20273;-61
2022/09/04 15:02:47;;;;;;;;;;;33.00;86.80;;;;;;4980828;28;20207;-62
2022/09/04 15:05:19;;;;;;;;;;;33.00;86.30;;;;;;4979852;28;20216;-62
2022/09/04 15:07:49;;;;;;;;;;;33.10;85.10;;;;;;4977659;28;20212;-65
2022/09/04 15:10:23;;;;;;;;;;;33.20;83.70;;;;;;4979313;28;20204;-62